createdAt,value
2023-04-28T00:01:56.701Z,45.12
2023-04-28T00:04:24.736Z,45.08
2023-04-28T00:06:52.712Z,45.34
2023-04-28T00:09:20.314Z,45.43
2023-04-28T00:11:48.264Z,45.13
2023-04-28T00:14:16.004Z,45.54
2023-04-28T00:16:44.033Z,45.99
2023-04-28T00:19:11.617Z,45.73
2023-04-28T00:21:39.339Z,46.13
2023-04-28T00:24:07.384Z,45.93
2023-04-28T00:26:34.867Z,46.50
2023-04-28T00:29:02.452Z,46.56
2023-04-28T00:31:30.298Z,46.55
2023-04-28T00:33:57.875Z,46.74
2023-04-28T00:36:25.810Z,47.45
2023-04-28T00:38:54.688Z,47.45
2023-04-28T00:41:22.067Z,47.40
2023-04-28T00:43:50.760Z,47.37
2023-04-28T00:46:22.854Z,47.61
2023-04-28T00:48:50.903Z,47.07
2023-04-28T00:51:18.516Z,47.60
2023-04-28T00:53:46.384Z,46.93
2023-04-28T00:56:14.362Z,47.30
2023-04-28T00:58:42.947Z,47.38
2023-04-28T01:01:11.273Z,47.49
2023-04-28T01:03:41.182Z,47.75
2023-04-28T01:06:11.104Z,47.83
2023-04-28T01:08:43.521Z,47.32
2023-04-28T01:11:16.613Z,47.41
2023-04-28T01:14:07.171Z,47.75
2023-04-28T01:16:39.060Z,47.81
2023-04-28T01:19:08.709Z,47.95
2023-04-28T01:21:39.720Z,47.69
2023-04-28T01:24:29.800Z,47.50
2023-04-28T01:27:01.342Z,47.38
2023-04-28T01:29:29.011Z,47.45
2023-04-28T01:31:56.577Z,47.39
2023-04-28T01:34:24.150Z,47.53
2023-04-28T01:36:51.589Z,47.22
2023-04-28T01:39:19.486Z,47.61
2023-04-28T01:41:47.057Z,46.77
2023-04-28T01:44:14.888Z,46.98
2023-04-28T01:46:42.772Z,46.53
2023-04-28T01:49:10.335Z,46.11
2023-04-28T01:51:37.778Z,45.94
2023-04-28T01:54:05.892Z,45.44
2023-04-28T01:56:33.334Z,45.77
2023-04-28T01:59:01.642Z,45.46
2023-04-28T02:01:29.491Z,45.76
2023-04-28T02:03:57.413Z,45.58
2023-04-28T02:06:25.201Z,45.52
2023-04-28T02:08:52.669Z,45.34
2023-04-28T02:11:20.438Z,45.11
2023-04-28T02:13:49.335Z,45.53
2023-04-28T02:16:36.767Z,45.15
2023-04-28T02:19:05.173Z,45.35
2023-04-28T02:21:33.183Z,44.98
2023-04-28T02:24:00.640Z,45.15
2023-04-28T02:26:28.142Z,45.36
2023-04-28T02:28:55.628Z,45.23
2023-04-28T02:31:23.628Z,45.05
2023-04-28T02:33:54.764Z,44.90
2023-04-28T02:36:22.199Z,44.82
2023-04-28T02:38:49.694Z,45.13
2023-04-28T02:41:17.158Z,44.63
2023-04-28T02:43:44.693Z,44.50
2023-04-28T02:46:12.411Z,44.83
2023-04-28T02:48:41.092Z,44.40
2023-04-28T02:51:08.758Z,44.77
2023-04-28T02:53:36.346Z,45.19
2023-04-28T02:56:04.957Z,45.29
2023-04-28T02:58:33.700Z,44.63
2023-04-28T03:01:01.898Z,45.05
2023-04-28T03:03:29.546Z,45.27
2023-04-28T03:05:57.324Z,45.04
2023-04-28T03:08:25.057Z,45.05
2023-04-28T03:10:54.260Z,45.20
2023-04-28T03:13:21.846Z,45.38
2023-04-28T03:15:52.781Z,45.27
2023-04-28T03:18:20.235Z,45.77
2023-04-28T03:20:47.831Z,45.92
2023-04-28T03:23:15.295Z,45.84
2023-04-28T03:25:42.814Z,46.13
2023-04-28T03:28:11.109Z,46.48
2023-04-28T03:30:38.629Z,46.49
2023-04-28T03:33:06.103Z,46.47
2023-04-28T03:35:33.987Z,47.08
2023-04-28T03:38:01.523Z,48.18
2023-04-28T03:40:29.130Z,48.59
2023-04-28T03:43:11.646Z,48.83
2023-04-28T03:45:47.789Z,48.18
2023-04-28T03:48:15.524Z,49.02
2023-04-28T03:50:43.887Z,49.09
2023-04-28T03:53:11.975Z,49.34
2023-04-28T03:55:39.401Z,48.39
2023-04-28T03:58:06.870Z,49.02
2023-04-28T04:00:35.261Z,49.21
2023-04-28T04:03:02.833Z,48.61
2023-04-28T04:05:30.736Z,49.06
2023-04-28T04:07:58.406Z,51.33
2023-04-28T04:10:25.898Z,51.11
2023-04-28T04:12:53.904Z,49.87
2023-04-28T04:15:21.466Z,49.34
2023-04-28T04:17:49.516Z,48.82
2023-04-28T04:20:17.078Z,49.17
2023-04-28T04:22:46.264Z,48.32
2023-04-28T04:25:14.585Z,48.27
2023-04-28T04:27:47.863Z,48.42
2023-04-28T04:30:15.806Z,49.01
2023-04-28T04:32:43.608Z,48.81
2023-04-28T04:35:11.389Z,48.19
2023-04-28T04:37:39.069Z,48.66
2023-04-28T04:40:08.002Z,49.75
2023-04-28T04:42:41.920Z,49.79
2023-04-28T04:45:14.005Z,52.90
2023-04-28T04:47:42.884Z,50.66
2023-04-28T04:50:12.205Z,50.69
2023-04-28T04:52:40.263Z,50.71
2023-04-28T04:55:08.284Z,50.26
2023-04-28T04:57:35.860Z,50.76
2023-04-28T05:00:09.180Z,50.99
2023-04-28T05:02:37.766Z,51.57
2023-04-28T05:05:20.469Z,52.07
2023-04-28T05:08:02.719Z,51.68
2023-04-28T05:10:30.220Z,52.52
2023-04-28T05:12:57.705Z,51.72
2023-04-28T05:15:25.286Z,52.01
2023-04-28T05:18:16.259Z,53.39
2023-04-28T05:20:44.032Z,53.29
2023-04-28T05:23:18.316Z,52.43
2023-04-28T05:25:45.916Z,51.08
2023-04-28T05:28:13.866Z,51.34
2023-04-28T05:30:45.171Z,50.24
2023-04-28T05:33:14.409Z,48.85
2023-04-28T05:35:43.119Z,48.74
2023-04-28T05:38:10.844Z,47.98
2023-04-28T05:40:38.793Z,48.02
2023-04-28T05:43:06.256Z,48.24
2023-04-28T05:45:33.801Z,48.08
2023-04-28T05:48:02.147Z,48.11
2023-04-28T05:50:29.846Z,48.67
2023-04-28T05:52:57.628Z,48.17
2023-04-28T05:55:25.569Z,48.92
2023-04-28T05:57:54.759Z,49.12
2023-04-28T06:00:22.844Z,49.28
2023-04-28T06:02:54.389Z,49.13
2023-04-28T06:05:23.807Z,49.51
2023-04-28T06:07:55.140Z,49.18
2023-04-28T06:10:23.908Z,49.13
2023-04-28T06:12:51.584Z,49.01
2023-04-28T06:15:18.995Z,48.68
2023-04-28T06:17:47.050Z,48.42
2023-04-28T06:20:16.886Z,48.27
2023-04-28T06:22:44.908Z,47.58
2023-04-28T06:25:12.856Z,48.07
2023-04-28T06:27:47.746Z,48.33
2023-04-28T06:30:20.527Z,48.92
2023-04-28T06:32:48.198Z,48.00
2023-04-28T06:35:17.181Z,47.06
2023-04-28T06:37:44.716Z,47.74
2023-04-28T06:40:12.398Z,47.82
2023-04-28T06:42:44.039Z,47.67
2023-04-28T06:45:16.999Z,48.20
2023-04-28T06:47:45.051Z,48.71
2023-04-28T06:50:13.056Z,49.33
2023-04-28T06:52:40.886Z,49.49
2023-04-28T06:55:11.972Z,49.47
2023-04-28T06:57:39.467Z,49.24
2023-04-28T07:00:08.486Z,49.29
2023-04-28T07:02:37.165Z,49.10
2023-04-28T07:05:05.371Z,49.25
2023-04-28T07:07:33.174Z,49.00
2023-04-28T07:10:01.342Z,48.92
2023-04-28T07:12:30.799Z,48.61
2023-04-28T07:14:58.258Z,48.87
2023-04-28T07:17:25.863Z,48.66
2023-04-28T07:19:53.371Z,48.69
2023-04-28T07:22:20.892Z,48.55
2023-04-28T07:24:48.391Z,48.50
2023-04-28T07:27:15.872Z,48.55
2023-04-28T07:29:43.420Z,47.58
2023-04-28T07:32:11.217Z,47.67
2023-04-28T07:34:38.833Z,47.75
2023-04-28T07:37:07.295Z,46.85
2023-04-28T07:39:35.401Z,47.88
2023-04-28T07:42:03.786Z,47.98
2023-04-28T07:44:32.728Z,47.93
2023-04-28T07:47:01.419Z,47.77
2023-04-28T07:49:29.885Z,47.88
2023-04-28T07:51:57.602Z,48.25
2023-04-28T07:54:26.450Z,48.24
2023-04-28T07:56:54.054Z,47.63
2023-04-28T07:59:21.491Z,47.17
2023-04-28T08:01:48.968Z,47.68
2023-04-28T08:04:16.704Z,47.21
2023-04-28T08:06:44.529Z,47.23
2023-04-28T08:09:12.176Z,47.61
2023-04-28T08:11:39.597Z,47.56
2023-04-28T08:14:07.230Z,48.92
2023-04-28T08:16:38.585Z,48.69
2023-04-28T08:19:06.193Z,48.17
2023-04-28T08:21:34.726Z,48.36
2023-04-28T08:24:02.171Z,49.26
2023-04-28T08:26:29.742Z,48.67
2023-04-28T08:28:57.484Z,47.86
2023-04-28T08:31:25.171Z,49.11
2023-04-28T08:33:53.522Z,49.39
2023-04-28T08:36:22.096Z,48.89
2023-04-28T08:38:49.626Z,48.80
2023-04-28T08:41:17.452Z,48.03
2023-04-28T08:43:45.988Z,47.43
2023-04-28T08:46:15.339Z,47.59
2023-04-28T08:48:47.939Z,47.16
2023-04-28T08:51:23.634Z,47.39
2023-04-28T08:56:25.393Z,46.36
2023-04-28T08:58:54.219Z,46.68
2023-04-28T09:01:21.702Z,46.50
2023-04-28T09:03:49.718Z,46.92
2023-04-28T09:06:17.625Z,47.94
2023-04-28T09:08:45.082Z,49.21
2023-04-28T09:11:13.894Z,48.71
2023-04-28T09:13:42.072Z,48.61
2023-04-28T09:16:09.917Z,48.18
2023-04-28T09:18:37.398Z,47.05
2023-04-28T09:21:09.675Z,47.51
2023-04-28T09:23:49.425Z,47.79
2023-04-28T09:26:17.046Z,46.76
2023-04-28T09:28:44.652Z,46.53
2023-04-28T09:31:28.287Z,46.43
2023-04-28T09:33:59.963Z,47.24
2023-04-28T09:36:31.238Z,47.67
2023-04-28T09:39:00.346Z,46.86
2023-04-28T09:41:41.802Z,46.89
2023-04-28T09:44:17.419Z,46.69
2023-04-28T09:46:46.543Z,46.23
2023-04-28T09:49:14.731Z,46.40
2023-04-28T09:51:42.405Z,45.91
2023-04-28T09:54:10.235Z,45.53
2023-04-28T09:56:40.376Z,45.97
2023-04-28T09:59:08.391Z,45.89
2023-04-28T10:01:41.567Z,45.54
2023-04-28T10:04:12.198Z,44.67
2023-04-28T10:06:40.396Z,44.48
2023-04-28T10:09:08.764Z,44.28
2023-04-28T10:11:37.586Z,43.96
2023-04-28T10:14:05.060Z,43.31
2023-04-28T10:16:33.441Z,43.45
2023-04-28T10:19:03.598Z,43.97
2023-04-28T10:21:34.911Z,43.18
2023-04-28T10:24:15.594Z,43.56
2023-04-28T10:27:05.974Z,43.09
2023-04-28T10:29:34.606Z,42.60
2023-04-28T10:32:28.938Z,42.24
2023-04-28T10:35:22.046Z,42.03
2023-04-28T10:38:06.086Z,41.76
2023-04-28T10:40:41.566Z,41.09
2023-04-28T10:43:10.874Z,41.06
2023-04-28T10:45:56.029Z,41.49
2023-04-28T10:48:44.903Z,41.09
2023-04-28T10:51:15.463Z,40.48
2023-04-28T10:53:46.835Z,40.12
2023-04-28T10:56:23.820Z,40.11
2023-04-28T10:58:55.020Z,40.39
2023-04-28T11:01:22.892Z,39.92
2023-04-28T11:03:50.622Z,39.67
2023-04-28T11:06:34.644Z,40.28
2023-04-28T11:09:15.623Z,39.57
2023-04-28T11:12:07.183Z,39.15
2023-04-28T11:14:36.737Z,39.10
2023-04-28T11:17:07.291Z,38.40
2023-04-28T11:19:36.859Z,38.52
2023-04-28T11:22:11.939Z,38.93
2023-04-28T11:24:39.814Z,38.45
2023-04-28T11:27:07.354Z,38.61
2023-04-28T11:29:40.026Z,38.99
2023-04-28T11:32:09.887Z,38.85
2023-04-28T11:34:38.423Z,38.88
2023-04-28T11:37:09.554Z,38.88
2023-04-28T11:39:37.614Z,38.42
2023-04-28T11:42:14.314Z,38.38
2023-04-28T11:44:41.965Z,38.51
2023-04-28T11:47:09.674Z,38.61
2023-04-28T11:49:47.213Z,38.87
2023-04-28T11:52:14.826Z,38.44
2023-04-28T11:54:43.961Z,38.40
2023-04-28T11:57:21.865Z,38.70
2023-04-28T11:59:50.659Z,38.43
2023-04-28T12:02:29.882Z,38.62
2023-04-28T12:05:05.792Z,38.10
2023-04-28T12:07:44.585Z,38.77
2023-04-28T12:10:17.427Z,38.55
2023-04-28T12:15:20.774Z,38.28
2023-04-28T12:17:49.474Z,38.10
2023-04-28T12:20:37.368Z,38.41
2023-04-28T12:23:05.900Z,38.03
2023-04-28T12:25:35.379Z,38.20
2023-04-28T12:28:08.606Z,38.70
2023-04-28T12:30:44.223Z,38.51
2023-04-28T12:33:25.909Z,38.44
2023-04-28T12:35:57.406Z,38.91
2023-04-28T12:38:25.582Z,38.92
2023-04-28T12:40:53.740Z,38.89
2023-04-28T12:43:23.609Z,38.77
2023-04-28T12:45:53.904Z,38.97
2023-04-28T12:48:22.649Z,39.04
2023-04-28T12:50:50.426Z,39.05
2023-04-28T12:53:17.878Z,38.77
2023-04-28T12:55:45.408Z,39.17
2023-04-28T12:58:13.067Z,39.43
2023-04-28T13:00:42.108Z,39.82
2023-04-28T13:03:09.890Z,39.74
2023-04-28T13:05:37.525Z,39.69
2023-04-28T13:08:05.419Z,39.49
2023-04-28T13:10:32.892Z,39.69
2023-04-28T13:13:00.463Z,39.62
2023-04-28T13:15:27.927Z,39.65
2023-04-28T13:17:55.500Z,39.65
2023-04-28T13:20:23.293Z,39.46
2023-04-28T13:22:51.105Z,39.46
2023-04-28T13:25:18.600Z,39.60
2023-04-28T13:27:48.021Z,39.65
2023-04-28T13:30:15.592Z,39.58
2023-04-28T13:32:43.194Z,39.44
2023-04-28T13:35:10.678Z,39.69
2023-04-28T13:37:42.812Z,39.59
2023-04-28T13:40:12.513Z,39.68
2023-04-28T13:42:40.039Z,39.55
2023-04-28T13:45:07.792Z,39.61
2023-04-28T13:47:35.389Z,39.52
2023-04-28T13:50:03.774Z,39.17
2023-04-28T13:52:31.456Z,39.08
2023-04-28T13:54:59.029Z,38.74
2023-04-28T13:57:26.998Z,38.82
2023-04-28T13:59:54.532Z,38.40
2023-04-28T14:02:22.231Z,38.26
2023-04-28T14:04:51.378Z,38.07
2023-04-28T14:07:19.220Z,38.30
2023-04-28T14:09:47.158Z,38.62
2023-04-28T14:12:15.697Z,38.43
2023-04-28T14:14:43.806Z,37.79
2023-04-28T14:17:11.590Z,37.75
2023-04-28T14:19:39.130Z,37.61
2023-04-28T14:22:12.584Z,36.76
2023-04-28T14:24:40.164Z,36.61
2023-04-28T14:27:07.979Z,36.61
2023-04-28T14:29:35.538Z,36.49
2023-04-28T14:32:03.091Z,36.70
2023-04-28T14:34:30.532Z,36.36
2023-04-28T14:36:58.059Z,35.78
2023-04-28T14:39:25.865Z,35.47
2023-04-28T14:41:53.360Z,35.58
2023-04-28T14:44:20.987Z,34.99
2023-04-28T14:46:49.127Z,35.05
2023-04-28T14:49:16.793Z,34.95
2023-04-28T14:51:44.190Z,34.25
2023-04-28T14:54:11.715Z,33.87
2023-04-28T14:56:39.332Z,34.11
2023-04-28T14:59:07.083Z,34.08
2023-04-28T15:01:34.580Z,33.40
2023-04-28T15:04:02.198Z,32.82
2023-04-28T15:06:30.161Z,32.47
2023-04-28T15:08:57.575Z,32.02
2023-04-28T15:11:25.059Z,32.60
2023-04-28T15:13:52.529Z,32.57
2023-04-28T15:16:20.437Z,31.72
2023-04-28T15:18:48.722Z,31.80
2023-04-28T15:21:16.246Z,31.62
2023-04-28T15:23:43.720Z,32.02
2023-04-28T15:26:11.341Z,31.87
2023-04-28T15:28:39.674Z,31.14
2023-04-28T15:31:07.521Z,31.66
2023-04-28T15:33:35.117Z,31.16
2023-04-28T15:36:02.767Z,31.37
2023-04-28T15:38:32.004Z,31.05
2023-04-28T15:40:59.664Z,31.56
2023-04-28T15:43:27.187Z,31.18
2023-04-28T15:45:54.807Z,31.43
2023-04-28T15:48:23.499Z,31.75
2023-04-28T15:50:51.176Z,31.68
2023-04-28T15:53:18.891Z,32.09
2023-04-28T15:55:46.457Z,31.05
2023-04-28T15:58:14.033Z,31.03
2023-04-28T16:00:42.517Z,31.14
2023-04-28T16:03:10.136Z,30.47
2023-04-28T16:05:38.895Z,30.04
2023-04-28T16:08:06.692Z,30.42
2023-04-28T16:10:34.833Z,29.57
2023-04-28T16:13:02.405Z,30.50
2023-04-28T16:15:29.914Z,30.12
2023-04-28T16:17:57.953Z,31.02
2023-04-28T16:20:25.426Z,30.17
2023-04-28T16:22:53.637Z,29.93
2023-04-28T16:25:21.407Z,30.65
2023-04-28T16:27:48.844Z,31.54
2023-04-28T16:30:16.405Z,31.00
2023-04-28T16:32:44.016Z,30.48
2023-04-28T16:35:15.266Z,30.59
2023-04-28T16:37:43.841Z,30.60
2023-04-28T16:40:12.722Z,30.75
2023-04-28T16:42:40.279Z,30.78
2023-04-28T16:45:08.591Z,30.88
2023-04-28T16:47:36.365Z,30.44
2023-04-28T16:50:04.171Z,30.13
2023-04-28T16:52:33.172Z,30.34
2023-04-28T16:55:00.794Z,30.96
2023-04-28T16:57:28.225Z,30.41
2023-04-28T16:59:56.039Z,31.02
2023-04-28T17:02:24.508Z,30.35
2023-04-28T17:04:52.399Z,30.16
2023-04-28T17:07:20.126Z,30.43
2023-04-28T17:09:47.767Z,30.31
2023-04-28T17:12:17.069Z,30.37
2023-04-28T17:14:44.570Z,29.68
2023-04-28T17:17:12.197Z,29.61
2023-04-28T17:19:47.240Z,28.71
2023-04-28T17:22:14.793Z,29.16
2023-04-28T17:24:42.379Z,27.65
2023-04-28T17:27:10.225Z,28.65
2023-04-28T17:29:37.813Z,28.20
2023-04-28T17:32:06.504Z,27.48
2023-04-28T17:34:34.294Z,28.02
2023-04-28T17:37:01.740Z,28.08
2023-04-28T17:39:29.310Z,27.06
2023-04-28T17:41:58.371Z,28.10
2023-04-28T17:44:26.210Z,26.75
2023-04-28T17:46:56.584Z,26.67
2023-04-28T17:49:24.732Z,27.44
2023-04-28T17:51:52.215Z,27.00
2023-04-28T17:54:19.920Z,26.47
2023-04-28T17:56:47.295Z,26.22
2023-04-28T17:59:16.332Z,26.21
2023-04-28T18:01:43.884Z,26.78
2023-04-28T18:04:11.521Z,26.63
2023-04-28T18:06:38.999Z,26.32
2023-04-28T18:09:06.549Z,27.60
2023-04-28T18:11:34.985Z,27.74
2023-04-28T18:14:02.480Z,26.95
2023-04-28T18:16:30.041Z,27.28
2023-04-28T18:18:57.612Z,28.29
2023-04-28T18:21:25.028Z,29.02
2023-04-28T18:23:52.422Z,28.96
2023-04-28T18:26:21.231Z,28.14
2023-04-28T18:28:48.770Z,28.66
2023-04-28T18:31:17.244Z,28.66
2023-04-28T18:33:45.330Z,28.36
2023-04-28T18:36:15.688Z,28.69
2023-04-28T18:38:45.750Z,29.14
2023-04-28T18:41:18.152Z,28.27
2023-04-28T18:43:45.888Z,27.71
2023-04-28T18:46:13.889Z,28.05
2023-04-28T18:48:41.523Z,27.59
2023-04-28T18:51:12.061Z,27.42
2023-04-28T18:53:39.525Z,27.04
2023-04-28T18:56:12.816Z,27.45
2023-04-28T18:58:43.297Z,27.01
2023-04-28T19:01:15.470Z,27.47
2023-04-28T19:03:44.039Z,27.72
2023-04-28T19:06:12.342Z,27.93
2023-04-28T19:08:39.874Z,27.75
2023-04-28T19:11:09.657Z,27.39
2023-04-28T19:13:38.211Z,27.24
2023-04-28T19:16:05.958Z,26.79
2023-04-28T19:18:33.637Z,27.03
2023-04-28T19:21:05.405Z,26.76
2023-04-28T19:23:33.006Z,26.71
2023-04-28T19:26:03.509Z,26.77
2023-04-28T19:28:31.307Z,26.87
2023-04-28T19:30:59.345Z,26.89
2023-04-28T19:33:28.384Z,27.15
2023-04-28T19:35:56.155Z,27.19
2023-04-28T19:38:24.114Z,27.44
2023-04-28T19:40:59.158Z,26.79
2023-04-28T19:43:26.825Z,27.57
2023-04-28T19:45:54.382Z,27.61
2023-04-28T19:48:22.293Z,26.99
2023-04-28T19:50:49.755Z,26.94
2023-04-28T19:53:17.191Z,27.16
2023-04-28T19:55:44.643Z,27.34
2023-04-28T19:58:12.440Z,26.86
2023-04-28T20:00:39.969Z,27.00
2023-04-28T20:03:08.635Z,27.39
2023-04-28T20:05:39.336Z,27.70
2023-04-28T20:08:13.121Z,27.08
2023-04-28T20:10:40.889Z,27.28
2023-04-28T20:13:08.768Z,27.66
2023-04-28T20:15:36.495Z,27.25
2023-04-28T20:18:04.660Z,27.44
2023-04-28T20:20:32.105Z,27.90
2023-04-28T20:22:59.516Z,28.69
2023-04-28T20:25:28.093Z,28.09
2023-04-28T20:27:55.601Z,27.85
2023-04-28T20:30:23.247Z,29.94
2023-04-28T20:32:50.718Z,28.01
2023-04-28T20:35:18.434Z,29.70
2023-04-28T20:37:45.801Z,29.25
2023-04-28T20:40:13.535Z,28.59
2023-04-28T20:42:41.087Z,29.09
2023-04-28T20:45:08.835Z,28.52
2023-04-28T20:47:36.882Z,28.94
2023-04-28T20:50:05.199Z,29.31
2023-04-28T20:52:32.747Z,28.18
2023-04-28T20:55:00.650Z,28.63
2023-04-28T20:57:28.197Z,27.66
2023-04-28T20:59:55.726Z,28.50
2023-04-28T21:02:23.516Z,28.76
2023-04-28T21:04:51.130Z,28.47
2023-04-28T21:07:18.999Z,28.39
2023-04-28T21:09:46.484Z,27.89
2023-04-28T21:12:13.878Z,28.36
2023-04-28T21:14:41.440Z,27.68
2023-04-28T21:17:09.301Z,28.32
2023-04-28T21:19:37.288Z,27.91
2023-04-28T21:22:04.803Z,28.22
2023-04-28T21:24:32.292Z,28.62
2023-04-28T21:27:03.218Z,28.32
2023-04-28T21:29:32.201Z,28.47
2023-04-28T21:31:59.661Z,27.89
2023-04-28T21:34:27.970Z,27.74
2023-04-28T21:36:55.518Z,27.58
2023-04-28T21:39:23.039Z,28.14
2023-04-28T21:41:50.695Z,27.29
2023-04-28T21:44:18.502Z,27.25
2023-04-28T21:46:46.115Z,27.67
2023-04-28T21:49:14.173Z,27.72
2023-04-28T21:51:46.177Z,26.42
2023-04-28T21:54:14.669Z,26.62
2023-04-28T21:56:42.267Z,26.84
2023-04-28T21:59:09.721Z,26.59
2023-04-28T22:01:37.225Z,27.13
2023-04-28T22:04:08.932Z,26.97
2023-04-28T22:06:36.627Z,26.80
2023-04-28T22:09:05.340Z,27.90
2023-04-28T22:11:32.878Z,27.47
2023-04-28T22:14:00.453Z,27.44
2023-04-28T22:16:28.392Z,27.69
2023-04-28T22:18:55.883Z,27.73
2023-04-28T22:21:23.520Z,27.91
2023-04-28T22:23:51.013Z,27.89
2023-04-28T22:26:28.742Z,28.05
2023-04-28T22:28:56.433Z,28.12
2023-04-28T22:31:23.949Z,27.82
2023-04-28T22:33:51.556Z,28.58
2023-04-28T22:36:18.936Z,27.72
2023-04-28T22:38:46.518Z,27.29
2023-04-28T22:41:14.005Z,27.56
2023-04-28T22:43:41.619Z,27.30
2023-04-28T22:46:09.164Z,27.75
2023-04-28T22:48:36.664Z,27.48
2023-04-28T22:51:04.192Z,27.50
2023-04-28T22:53:31.675Z,28.26
2023-04-28T22:56:03.166Z,28.80
2023-04-28T22:58:30.693Z,28.92
2023-04-28T23:01:02.036Z,27.97
2023-04-28T23:03:29.535Z,28.48
2023-04-28T23:05:57.218Z,28.18
2023-04-28T23:08:24.760Z,28.03
2023-04-28T23:10:52.200Z,27.97
2023-04-28T23:13:19.729Z,27.99
2023-04-28T23:15:47.377Z,27.60
2023-04-28T23:18:14.900Z,27.75
2023-04-28T23:20:42.462Z,27.80
2023-04-28T23:23:09.965Z,27.86
2023-04-28T23:25:40.774Z,28.17
2023-04-28T23:28:09.137Z,27.86
2023-04-28T23:30:36.786Z,28.10
2023-04-28T23:33:04.539Z,28.21
2023-04-28T23:35:33.477Z,28.20
2023-04-28T23:38:00.889Z,28.40
2023-04-28T23:40:28.327Z,28.83
2023-04-28T23:42:55.849Z,28.26
2023-04-28T23:45:23.560Z,28.32
2023-04-28T23:47:51.174Z,28.22
2023-04-28T23:50:18.731Z,28.38
2023-04-28T23:52:46.409Z,28.09
2023-04-28T23:55:14.086Z,28.60
2023-04-28T23:57:42.202Z,28.45
